createdAt,value
2018-11-20T00:02:46.493Z,3.47
2018-11-20T00:05:55.346Z,3.36
2018-11-20T00:09:01.756Z,3.37
2018-11-20T00:12:29.224Z,3.46
2018-11-20T00:15:30.880Z,3.53
2018-11-20T00:18:38.326Z,3.42
2018-11-20T00:21:40.176Z,3.45
2018-11-20T00:24:48.232Z,3.43
2018-11-20T00:27:49.206Z,3.48
2018-11-20T00:30:58.718Z,3.29
2018-11-20T00:34:05.646Z,3.22
2018-11-20T00:37:14.884Z,3.21
2018-11-20T00:40:43.702Z,3.03
2018-11-20T00:43:48.252Z,2.98
2018-11-20T00:46:56.699Z,3.07
2018-11-20T00:50:07.406Z,3.10
2018-11-20T00:53:35.354Z,2.89
2018-11-20T00:56:57.204Z,2.87
2018-11-20T01:00:06.452Z,2.85
2018-11-20T01:03:08.608Z,2.89
2018-11-20T01:06:08.495Z,2.84
2018-11-20T01:09:05.682Z,2.97
2018-11-20T01:12:13.356Z,3.01
2018-11-20T01:15:16.822Z,3.01
2018-11-20T01:18:24.545Z,3.08
2018-11-20T01:21:32.828Z,3.02
2018-11-20T01:25:00.053Z,3.03
2018-11-20T01:28:01.555Z,3.11
2018-11-20T01:31:09.600Z,3.12
2018-11-20T01:34:10.811Z,3.00
2018-11-20T01:37:18.839Z,2.90
2018-11-20T01:40:20.411Z,3.06
2018-11-20T01:43:28.763Z,2.98
2018-11-20T01:46:28.729Z,3.04
2018-11-20T01:49:36.567Z,2.90
2018-11-20T01:52:37.697Z,3.04
2018-11-20T01:55:46.359Z,2.92
2018-11-20T01:58:47.943Z,2.90
2018-11-20T02:01:56.950Z,2.99
2018-11-20T02:05:06.336Z,2.95
2018-11-20T02:08:15.924Z,2.87
2018-11-20T02:11:22.540Z,2.91
2018-11-20T02:14:33.940Z,2.78
2018-11-20T02:18:05.880Z,2.76
2018-11-20T02:20:57.505Z,2.75
2018-11-20T02:24:06.504Z,2.81
2018-11-20T02:27:09.690Z,2.81
2018-11-20T02:30:12.554Z,2.89
2018-11-20T02:33:40.423Z,2.69
2018-11-20T02:36:46.340Z,2.82
2018-11-20T02:40:13.961Z,2.85
2018-11-20T02:43:14.753Z,2.70
2018-11-20T02:46:24.957Z,2.88
2018-11-20T02:49:25.303Z,2.76
2018-11-20T02:52:34.131Z,2.87
2018-11-20T02:55:24.824Z,2.96
2018-11-20T02:58:33.661Z,2.95
2018-11-20T03:01:34.775Z,2.86
2018-11-20T03:04:32.215Z,2.93
2018-11-20T03:07:40.896Z,3.05
2018-11-20T03:10:48.903Z,2.98
2018-11-20T03:13:48.839Z,3.06
2018-11-20T03:16:56.625Z,3.15
2018-11-20T03:19:58.229Z,2.95
2018-11-20T03:23:05.715Z,3.20
2018-11-20T03:26:09.542Z,3.12
2018-11-20T03:29:21.413Z,3.05
2018-11-20T03:32:20.043Z,3.07
2018-11-20T03:35:28.537Z,3.06
2018-11-20T03:38:24.837Z,3.09
2018-11-20T03:41:24.585Z,3.07
2018-11-20T03:44:25.635Z,3.08
2018-11-20T03:47:33.729Z,3.00
2018-11-20T03:50:42.154Z,3.00
2018-11-20T03:53:43.153Z,3.09
2018-11-20T03:57:14.130Z,3.03
2018-11-20T04:00:17.277Z,2.95
2018-11-20T04:03:26.800Z,3.10
2018-11-20T04:06:29.175Z,3.12
2018-11-20T04:09:57.422Z,3.08
2018-11-20T04:12:59.770Z,3.08
2018-11-20T04:16:08.995Z,3.06
2018-11-20T04:19:09.614Z,3.12
2018-11-20T04:22:37.678Z,3.07
2018-11-20T04:25:26.534Z,3.04
2018-11-20T04:28:35.374Z,2.95
2018-11-20T04:35:18.120Z,2.98
2018-11-20T04:38:34.960Z,3.09
2018-11-20T04:41:34.373Z,3.01
2018-11-20T04:44:42.884Z,3.09
2018-11-20T04:47:38.854Z,3.06
2018-11-20T04:51:06.274Z,3.11
2018-11-20T04:53:59.531Z,3.03
2018-11-20T04:57:07.752Z,3.08
2018-11-20T05:00:08.673Z,3.10
2018-11-20T05:03:17.935Z,3.10
2018-11-20T05:06:23.231Z,3.10
2018-11-20T05:09:34.025Z,2.97
2018-11-20T05:12:41.058Z,3.07
2018-11-20T05:15:42.855Z,3.02
2018-11-20T05:19:12.367Z,3.04
2018-11-20T05:22:17.025Z,3.05
2018-11-20T05:25:45.261Z,3.08
2018-11-20T05:28:47.959Z,3.05
2018-11-20T05:31:56.995Z,3.04
2018-11-20T05:35:08.269Z,2.90
2018-11-20T05:38:19.425Z,3.01
2018-11-20T05:41:24.351Z,3.02
2018-11-20T05:44:53.104Z,3.05
2018-11-20T05:47:43.175Z,3.02
2018-11-20T05:50:52.371Z,2.95
2018-11-20T05:53:57.071Z,3.00
2018-11-20T05:57:01.360Z,2.93
2018-11-20T06:00:09.657Z,2.94
2018-11-20T06:03:12.058Z,2.95
2018-11-20T06:06:21.090Z,2.93
2018-11-20T06:09:24.220Z,2.95
2018-11-20T06:12:32.836Z,3.01
2018-11-20T06:15:33.916Z,3.05
2018-11-20T06:18:41.635Z,3.02
2018-11-20T06:21:46.319Z,3.03
2018-11-20T06:25:19.258Z,2.95
2018-11-20T06:28:20.342Z,2.93
2018-11-20T06:32:18.132Z,2.99
2018-11-20T06:41:30.501Z,2.87
2018-11-20T06:44:31.317Z,2.89
2018-11-20T06:47:39.324Z,2.93
2018-11-20T06:50:39.442Z,2.76
2018-11-20T06:53:39.921Z,2.82
2018-11-20T06:57:07.241Z,2.78
2018-11-20T06:59:55.691Z,2.73
2018-11-20T07:02:44.517Z,2.71
2018-11-20T07:05:32.934Z,2.78
2018-11-20T07:08:36.046Z,2.67
2018-11-20T07:11:43.490Z,2.75
2018-11-20T07:14:46.939Z,2.74
2018-11-20T07:17:47.498Z,2.73
2018-11-20T07:20:56.331Z,2.78
2018-11-20T07:23:57.821Z,2.80
2018-11-20T07:27:05.289Z,3.01
2018-11-20T07:30:13.052Z,3.09
2018-11-20T07:33:21.049Z,3.02
2018-11-20T07:36:25.695Z,3.24
2018-11-20T07:39:26.627Z,3.37
2018-11-20T07:42:34.281Z,3.46
2018-11-20T07:45:35.482Z,3.43
2018-11-20T07:48:36.000Z,3.45
2018-11-20T07:51:39.227Z,3.61
2018-11-20T07:54:40.389Z,3.65
2018-11-20T07:57:48.295Z,3.68
2018-11-20T08:00:42.564Z,3.75
2018-11-20T08:03:51.422Z,3.68
2018-11-20T08:06:54.346Z,3.56
2018-11-20T08:10:03.112Z,3.65
2018-11-20T08:13:30.632Z,3.57
2018-11-20T08:16:27.747Z,3.73
2018-11-20T08:19:27.264Z,3.73
2018-11-20T08:22:34.113Z,3.91
2018-11-20T08:25:42.268Z,3.96
2018-11-20T08:28:48.548Z,3.97
2018-11-20T08:31:56.150Z,3.91
2018-11-20T08:35:03.694Z,3.98
2018-11-20T08:38:30.673Z,3.91
2018-11-20T08:41:37.530Z,3.86
2018-11-20T08:44:45.550Z,3.84
2018-11-20T08:47:46.267Z,3.92
2018-11-20T08:50:54.305Z,3.80
2018-11-20T08:53:42.549Z,3.77
2018-11-20T08:56:49.240Z,3.75
2018-11-20T08:59:49.910Z,3.79
2018-11-20T09:02:57.972Z,3.66
2018-11-20T09:05:49.918Z,3.78
2018-11-20T09:08:57.762Z,3.65
2018-11-20T09:11:58.803Z,3.68
2018-11-20T09:15:06.675Z,3.76
2018-11-20T09:17:55.233Z,3.68
2018-11-20T09:21:02.687Z,3.54
2018-11-20T09:24:03.529Z,3.69
2018-11-20T09:27:11.356Z,3.77
2018-11-20T09:30:11.624Z,3.80
2018-11-20T09:33:19.342Z,4.02
2018-11-20T09:36:22.631Z,3.99
2018-11-20T09:39:20.852Z,4.04
2018-11-20T09:42:21.677Z,4.12
2018-11-20T09:45:47.981Z,4.19
2018-11-20T09:48:55.645Z,4.27
2018-11-20T09:51:49.859Z,4.27
2018-11-20T09:54:57.687Z,4.26
2018-11-20T09:57:58.737Z,4.06
2018-11-20T10:01:06.591Z,4.04
2018-11-20T10:04:12.451Z,3.98
2018-11-20T10:07:20.177Z,3.69
2018-11-20T10:10:27.993Z,3.78
2018-11-20T10:13:29.545Z,3.92
2018-11-20T10:16:37.358Z,3.84
2018-11-20T10:19:38.347Z,3.94
2018-11-20T10:22:38.323Z,4.09
2018-11-20T10:25:40.147Z,4.21
2018-11-20T10:28:40.670Z,4.15
2018-11-20T10:31:48.918Z,4.29
2018-11-20T10:34:50.121Z,4.21
2018-11-20T10:37:56.208Z,4.00
2018-11-20T10:41:04.216Z,4.15
2018-11-20T10:44:05.596Z,4.07
2018-11-20T10:47:13.058Z,4.11
2018-11-20T10:50:13.494Z,4.09
2018-11-20T10:53:20.970Z,4.15
2018-11-20T10:56:21.090Z,4.17
2018-11-20T10:59:28.645Z,4.11
2018-11-20T11:02:36.042Z,4.13
2018-11-20T11:06:04.192Z,4.10
2018-11-20T11:09:31.280Z,4.10
2018-11-20T11:12:38.955Z,4.03
2018-11-20T11:16:05.785Z,4.03
2018-11-20T11:19:08.998Z,4.06
2018-11-20T11:22:16.816Z,4.04
2018-11-20T11:25:11.446Z,4.06
2018-11-20T11:28:17.328Z,4.10
2018-11-20T11:34:07.239Z,4.08
2018-11-20T11:37:08.816Z,3.98
2018-11-20T11:43:21.318Z,3.82
2018-11-20T11:46:24.960Z,3.85
2018-11-20T11:49:32.429Z,3.84
2018-11-20T11:52:40.169Z,3.88
2018-11-20T11:59:08.045Z,3.63
2018-11-20T12:05:16.827Z,3.76
2018-11-20T12:08:25.625Z,3.81
2018-11-20T12:11:26.677Z,3.82
2018-11-20T12:14:34.342Z,3.98
2018-11-20T12:17:34.757Z,3.86
2018-11-20T12:20:43.391Z,3.80
2018-11-20T12:23:49.461Z,3.90
2018-11-20T12:26:57.500Z,4.00
2018-11-20T12:29:57.720Z,3.82
2018-11-20T12:33:05.184Z,3.86
2018-11-20T12:36:12.300Z,3.84
2018-11-20T12:39:11.238Z,3.86
2018-11-20T12:42:12.828Z,3.88
2018-11-20T12:45:13.576Z,3.83
2018-11-20T12:48:22.361Z,3.77
2018-11-20T12:51:08.948Z,3.82
2018-11-20T12:57:25.438Z,3.85
2018-11-20T13:00:32.902Z,3.95
2018-11-20T13:03:33.414Z,3.82
2018-11-20T13:06:41.108Z,3.80
2018-11-20T13:09:44.346Z,3.86
2018-11-20T13:12:51.798Z,3.76
2018-11-20T13:15:53.456Z,3.75
2018-11-20T13:19:00.243Z,3.71
2018-11-20T13:22:01.018Z,3.69
2018-11-20T13:25:09.520Z,3.65
2018-11-20T13:28:09.856Z,3.63
2018-11-20T13:31:17.522Z,3.56
2018-11-20T13:34:20.891Z,3.58
2018-11-20T13:37:26.426Z,3.49
2018-11-20T13:40:39.266Z,3.35
2018-11-20T13:43:46.728Z,3.24
2018-11-20T13:46:41.927Z,3.13
2018-11-20T13:50:08.976Z,2.98
2018-11-20T13:53:08.977Z,3.03
2018-11-20T13:56:17.008Z,3.13
2018-11-20T13:59:21.560Z,3.18
2018-11-20T14:02:22.239Z,3.16
2018-11-20T14:05:31.197Z,3.09
2018-11-20T14:08:33.377Z,3.02
2018-11-20T14:11:36.448Z,2.93
2018-11-20T14:14:28.912Z,2.85
2018-11-20T14:17:43.236Z,2.70
2018-11-20T14:20:51.333Z,2.68
2018-11-20T14:23:51.399Z,2.60
2018-11-20T14:26:59.110Z,2.49
2018-11-20T14:29:59.598Z,2.39
2018-11-20T14:33:07.281Z,2.29
2018-11-20T14:36:09.841Z,2.25
2018-11-20T14:39:14.668Z,2.25
2018-11-20T14:42:15.022Z,2.23
2018-11-20T14:45:17.054Z,2.25
2018-11-20T14:48:24.766Z,2.23
2018-11-20T14:51:23.424Z,2.20
2018-11-20T14:54:30.929Z,2.15
2018-11-20T14:57:31.068Z,2.37
2018-11-20T15:00:38.542Z,2.33
2018-11-20T15:03:41.596Z,2.34
2018-11-20T15:06:49.296Z,2.36
2018-11-20T15:09:48.802Z,2.37
2018-11-20T15:12:56.339Z,2.35
2018-11-20T15:15:57.200Z,2.39
2018-11-20T15:19:04.711Z,2.42
2018-11-20T15:22:07.544Z,2.48
2018-11-20T15:25:15.209Z,2.46
2018-11-20T15:28:15.614Z,2.53
2018-11-20T15:31:23.233Z,2.52
2018-11-20T15:34:20.962Z,2.43
2018-11-20T15:37:30.911Z,2.53
2018-11-20T15:40:31.375Z,2.48
2018-11-20T15:43:38.819Z,2.53
2018-11-20T15:46:44.853Z,2.44
2018-11-20T15:49:52.725Z,2.55
2018-11-20T15:52:53.669Z,2.46
2018-11-20T15:55:52.881Z,2.56
2018-11-20T15:58:53.658Z,2.56
2018-11-20T16:02:01.338Z,2.52
2018-11-20T16:05:07.765Z,2.44
2018-11-20T16:08:16.057Z,2.45
2018-11-20T16:11:23.962Z,2.59
2018-11-20T16:14:24.779Z,2.61
2018-11-20T16:17:32.329Z,2.57
2018-11-20T16:20:27.693Z,2.68
2018-11-20T16:23:35.445Z,2.69
2018-11-20T16:26:45.359Z,2.71
2018-11-20T16:29:41.461Z,2.74
2018-11-20T16:35:37.404Z,2.79
2018-11-20T16:38:39.317Z,2.76
2018-11-20T16:41:46.951Z,2.81
2018-11-20T16:44:42.735Z,2.78
2018-11-20T16:47:40.766Z,2.87
2018-11-20T16:50:44.529Z,2.78
2018-11-20T16:53:52.198Z,2.92
2018-11-20T16:56:55.871Z,2.90
2018-11-20T17:00:03.714Z,3.01
2018-11-20T17:06:16.635Z,2.75
2018-11-20T17:09:17.327Z,2.90
2018-11-20T17:12:15.771Z,2.88
2018-11-20T17:15:25.598Z,2.94
2018-11-20T17:18:33.680Z,2.91
2018-11-20T17:21:34.530Z,2.94
2018-11-20T17:24:43.611Z,3.04
2018-11-20T17:27:44.604Z,2.89
2018-11-20T17:30:54.404Z,2.88
2018-11-20T17:33:57.675Z,3.05
2018-11-20T17:37:05.345Z,3.06
2018-11-20T17:40:04.983Z,2.99
2018-11-20T17:43:12.686Z,2.86
2018-11-20T17:46:13.539Z,2.80
2018-11-20T17:49:21.238Z,3.06
2018-11-20T17:52:19.585Z,2.90
2018-11-20T17:55:27.767Z,2.86
2018-11-20T17:58:28.729Z,2.93
2018-11-20T18:01:36.672Z,3.04
2018-11-20T18:04:36.803Z,3.04
2018-11-20T18:07:43.734Z,3.03
2018-11-20T18:10:51.819Z,3.08
2018-11-20T18:13:43.290Z,3.11
2018-11-20T18:16:51.115Z,3.11
2018-11-20T18:19:50.983Z,3.05
2018-11-20T18:23:17.828Z,3.05
2018-11-20T18:26:17.860Z,3.01
2018-11-20T18:29:25.691Z,3.00
2018-11-20T18:32:33.557Z,3.03
2018-11-20T18:35:32.542Z,3.00
2018-11-20T18:38:40.549Z,3.08
2018-11-20T18:41:48.205Z,3.00
2018-11-20T18:44:56.046Z,3.00
2018-11-20T18:48:02.092Z,3.04
2018-11-20T18:51:09.554Z,3.08
2018-11-20T18:54:10.383Z,3.00
2018-11-20T18:57:17.898Z,2.95
2018-11-20T19:00:19.324Z,3.03
2018-11-20T19:03:18.428Z,2.96
2018-11-20T19:06:19.341Z,2.97
2018-11-20T19:09:28.204Z,2.99
2018-11-20T19:12:27.386Z,2.98
2018-11-20T19:15:35.687Z,3.00
2018-11-20T19:18:43.723Z,3.05
2018-11-20T19:21:51.981Z,3.18
2018-11-20T19:24:52.537Z,2.90
2018-11-20T19:28:01.036Z,3.07
2018-11-20T19:31:01.753Z,3.15
2018-11-20T19:34:11.016Z,3.10
2018-11-20T19:37:13.611Z,3.11
2018-11-20T19:40:14.967Z,2.99
2018-11-20T19:43:42.629Z,3.12
2018-11-20T19:46:43.807Z,3.14
2018-11-20T19:49:52.042Z,3.12
2018-11-20T19:52:47.844Z,3.15
2018-11-20T19:55:56.097Z,3.04
2018-11-20T19:58:56.122Z,2.93
2018-11-20T20:02:04.551Z,3.06
2018-11-20T20:05:07.463Z,3.06
2018-11-20T20:08:15.587Z,3.13
2018-11-20T20:11:11.845Z,3.17
2018-11-20T20:14:22.355Z,3.20
2018-11-20T20:17:25.182Z,3.13
2018-11-20T20:20:35.723Z,3.12
2018-11-20T20:23:35.790Z,2.96
2018-11-20T20:27:22.036Z,2.92
2018-11-20T20:30:30.748Z,3.04
2018-11-20T20:33:39.387Z,3.18
2018-11-20T20:36:46.508Z,3.06
2018-11-20T20:39:54.598Z,3.16
2018-11-20T20:42:57.075Z,3.13
2018-11-20T20:46:04.550Z,3.08
2018-11-20T20:49:08.500Z,3.15
2018-11-20T20:52:16.223Z,3.10
2018-11-20T20:55:24.846Z,3.16
2018-11-20T20:58:52.657Z,3.17
2018-11-20T21:01:55.413Z,3.08
2018-11-20T21:05:03.637Z,3.07
2018-11-20T21:08:02.692Z,3.11
2018-11-20T21:11:10.943Z,3.16
2018-11-20T21:14:11.297Z,3.00
2018-11-20T21:17:18.776Z,3.03
2018-11-20T21:20:19.402Z,3.11
2018-11-20T21:23:46.462Z,3.05
2018-11-20T21:26:47.593Z,2.98
2018-11-20T21:29:56.013Z,3.06
2018-11-20T21:32:55.912Z,3.01
2018-11-20T21:35:56.660Z,2.99
2018-11-20T21:39:04.740Z,2.99
2018-11-20T21:42:11.427Z,2.93
2018-11-20T21:45:19.513Z,2.91
2018-11-20T21:48:20.515Z,2.90
2018-11-20T21:51:28.449Z,2.81
2018-11-20T21:54:28.895Z,2.78
2018-11-20T21:57:37.497Z,2.69
2018-11-20T22:00:57.955Z,2.77
2018-11-20T22:03:58.937Z,2.74
2018-11-20T22:07:06.400Z,2.63
2018-11-20T22:10:13.895Z,2.55
2018-11-20T22:14:00.093Z,2.54
2018-11-20T22:17:00.523Z,2.52
2018-11-20T22:20:08.219Z,2.33
2018-11-20T22:23:08.213Z,2.38
2018-11-20T22:26:15.896Z,2.27
2018-11-20T22:29:15.747Z,2.21
2018-11-20T22:32:23.424Z,2.22
2018-11-20T22:35:23.797Z,2.20
2018-11-20T22:38:20.590Z,2.08
2018-11-20T22:41:28.189Z,2.12
2018-11-20T22:44:29.016Z,2.08
2018-11-20T22:47:36.645Z,2.11
2018-11-20T22:50:39.411Z,2.05
2018-11-20T22:53:47.860Z,2.03
2018-11-20T22:56:55.511Z,1.93
2018-11-20T23:00:02.962Z,1.99
2018-11-20T23:03:10.636Z,2.06
2018-11-20T23:06:06.591Z,1.96
2018-11-20T23:08:47.532Z,1.85
2018-11-20T23:11:36.014Z,1.87
2018-11-20T23:14:17.478Z,1.88
2018-11-20T23:17:05.940Z,1.88
2018-11-20T23:19:47.255Z,1.91
2018-11-20T23:22:36.128Z,1.88
2018-11-20T23:25:17.862Z,1.78
2018-11-20T23:28:06.368Z,1.73
2018-11-20T23:31:13.201Z,1.78
2018-11-20T23:37:19.794Z,1.75
2018-11-20T23:40:09.125Z,1.69
2018-11-20T23:42:50.634Z,1.71
2018-11-20T23:45:38.913Z,1.62
2018-11-20T23:48:21.798Z,1.60
2018-11-20T23:51:10.115Z,1.65
2018-11-20T23:53:51.157Z,1.58
2018-11-20T23:56:39.424Z,1.53
2018-11-20T23:59:20.361Z,1.66
